sensor_id;sensor_type;location;lat;lon;timestamp;P1;durP1;ratioP1;P2;durP2;ratioP2
55465;SDS011;41329;41.594;23.810;2024-01-27T00:00:16;10.83;;;9.57;;
55465;SDS011;41329;41.594;23.810;2024-01-27T00:02:42;13.30;;;10.90;;
55465;SDS011;41329;41.594;23.810;2024-01-27T00:05:08;14.23;;;10.20;;
55465;SDS011;41329;41.594;23.810;2024-01-27T00:07:34;17.43;;;12.53;;
55465;SDS011;41329;41.594;23.810;2024-01-27T00:10:01;19.30;;;14.47;;
55465;SDS011;41329;41.594;23.810;2024-01-27T00:12:27;29.13;;;15.67;;
55465;SDS011;41329;41.594;23.810;2024-01-27T00:14:53;17.40;;;14.50;;
55465;SDS011;41329;41.594;23.810;2024-01-27T00:17:18;18.30;;;14.30;;
55465;SDS011;41329;41.594;23.810;2024-01-27T00:19:49;16.73;;;13.27;;
55465;SDS011;41329;41.594;23.810;2024-01-27T00:22:14;15.47;;;12.63;;
55465;SDS011;41329;41.594;23.810;2024-01-27T00:24:41;13.20;;;11.90;;
55465;SDS011;41329;41.594;23.810;2024-01-27T00:27:07;11.87;;;10.53;;
55465;SDS011;41329;41.594;23.810;2024-01-27T00:29:32;12.83;;;11.50;;
55465;SDS011;41329;41.594;23.810;2024-01-27T00:31:58;14.47;;;11.10;;
55465;SDS011;41329;41.594;23.810;2024-01-27T00:34:23;10.40;;;8.97;;
55465;SDS011;41329;41.594;23.810;2024-01-27T00:36:49;9.60;;;8.57;;
55465;SDS011;41329;41.594;23.810;2024-01-27T00:39:15;6.97;;;6.37;;
55465;SDS011;41329;41.594;23.810;2024-01-27T00:41:41;6.37;;;5.77;;
55465;SDS011;41329;41.594;23.810;2024-01-27T00:44:07;5.03;;;4.47;;
55465;SDS011;41329;41.594;23.810;2024-01-27T00:46:33;7.07;;;6.37;;
55465;SDS011;41329;41.594;23.810;2024-01-27T00:48:58;8.40;;;7.60;;
55465;SDS011;41329;41.594;23.810;2024-01-27T00:51:24;17.23;;;11.63;;
55465;SDS011;41329;41.594;23.810;2024-01-27T00:53:49;25.73;;;17.07;;
55465;SDS011;41329;41.594;23.810;2024-01-27T00:56:14;41.83;;;20.43;;
55465;SDS011;41329;41.594;23.810;2024-01-27T00:58:40;26.17;;;16.23;;
55465;SDS011;41329;41.594;23.810;2024-01-27T01:01:06;19.50;;;14.20;;
55465;SDS011;41329;41.594;23.810;2024-01-27T01:03:32;10.17;;;8.80;;
55465;SDS011;41329;41.594;23.810;2024-01-27T01:05:57;10.23;;;9.10;;
55465;SDS011;41329;41.594;23.810;2024-01-27T01:08:23;13.23;;;9.90;;
55465;SDS011;41329;41.594;23.810;2024-01-27T01:10:48;11.13;;;10.03;;
55465;SDS011;41329;41.594;23.810;2024-01-27T01:13:14;14.70;;;10.83;;
55465;SDS011;41329;41.594;23.810;2024-01-27T01:15:39;15.03;;;10.90;;
55465;SDS011;41329;41.594;23.810;2024-01-27T01:18:05;12.47;;;10.13;;
55465;SDS011;41329;41.594;23.810;2024-01-27T01:20:30;13.70;;;12.17;;
55465;SDS011;41329;41.594;23.810;2024-01-27T01:22:57;15.70;;;12.67;;
55465;SDS011;41329;41.594;23.810;2024-01-27T01:25:23;12.87;;;10.70;;
55465;SDS011;41329;41.594;23.810;2024-01-27T01:27:48;15.53;;;11.00;;
55465;SDS011;41329;41.594;23.810;2024-01-27T01:30:15;21.30;;;14.27;;
55465;SDS011;41329;41.594;23.810;2024-01-27T01:32:42;18.43;;;13.50;;
55465;SDS011;41329;41.594;23.810;2024-01-27T01:35:07;14.83;;;13.20;;
55465;SDS011;41329;41.594;23.810;2024-01-27T01:37:33;12.17;;;11.07;;
55465;SDS011;41329;41.594;23.810;2024-01-27T01:39:59;10.20;;;9.20;;
55465;SDS011;41329;41.594;23.810;2024-01-27T01:42:24;11.63;;;9.27;;
55465;SDS011;41329;41.594;23.810;2024-01-27T01:44:50;11.70;;;9.70;;
55465;SDS011;41329;41.594;23.810;2024-01-27T01:47:16;9.97;;;9.07;;
55465;SDS011;41329;41.594;23.810;2024-01-27T01:49:42;11.43;;;9.03;;
55465;SDS011;41329;41.594;23.810;2024-01-27T01:52:08;11.00;;;8.73;;
55465;SDS011;41329;41.594;23.810;2024-01-27T01:54:33;21.60;;;13.60;;
55465;SDS011;41329;41.594;23.810;2024-01-27T01:56:59;29.43;;;16.43;;
55465;SDS011;41329;41.594;23.810;2024-01-27T01:59:24;14.87;;;11.27;;
55465;SDS011;41329;41.594;23.810;2024-01-27T02:01:50;19.07;;;12.80;;
55465;SDS011;41329;41.594;23.810;2024-01-27T02:04:15;15.60;;;10.87;;
55465;SDS011;41329;41.594;23.810;2024-01-27T02:06:41;16.90;;;10.67;;
55465;SDS011;41329;41.594;23.810;2024-01-27T02:09:06;12.30;;;9.90;;
55465;SDS011;41329;41.594;23.810;2024-01-27T02:11:32;12.00;;;8.33;;
55465;SDS011;41329;41.594;23.810;2024-01-27T02:13:57;11.93;;;9.33;;
55465;SDS011;41329;41.594;23.810;2024-01-27T02:16:23;15.53;;;10.17;;
55465;SDS011;41329;41.594;23.810;2024-01-27T02:18:48;17.27;;;13.37;;
55465;SDS011;41329;41.594;23.810;2024-01-27T02:21:14;30.33;;;17.27;;
55465;SDS011;41329;41.594;23.810;2024-01-27T02:23:39;27.77;;;17.23;;
55465;SDS011;41329;41.594;23.810;2024-01-27T02:26:05;31.87;;;17.10;;
55465;SDS011;41329;41.594;23.810;2024-01-27T02:28:30;31.03;;;16.63;;
55465;SDS011;41329;41.594;23.810;2024-01-27T02:30:57;32.63;;;17.27;;
55465;SDS011;41329;41.594;23.810;2024-01-27T02:33:24;28.00;;;16.13;;
55465;SDS011;41329;41.594;23.810;2024-01-27T02:35:50;19.00;;;14.77;;
55465;SDS011;41329;41.594;23.810;2024-01-27T02:38:15;15.60;;;13.33;;
55465;SDS011;41329;41.594;23.810;2024-01-27T02:40:41;19.37;;;11.57;;
55465;SDS011;41329;41.594;23.810;2024-01-27T02:43:06;19.67;;;10.57;;
55465;SDS011;41329;41.594;23.810;2024-01-27T02:45:32;13.93;;;9.93;;
55465;SDS011;41329;41.594;23.810;2024-01-27T02:47:57;26.57;;;14.37;;
55465;SDS011;41329;41.594;23.810;2024-01-27T02:50:22;24.00;;;15.50;;
55465;SDS011;41329;41.594;23.810;2024-01-27T02:52:48;25.80;;;13.57;;
55465;SDS011;41329;41.594;23.810;2024-01-27T02:55:13;14.93;;;11.33;;
55465;SDS011;41329;41.594;23.810;2024-01-27T02:57:40;13.57;;;10.70;;
55465;SDS011;41329;41.594;23.810;2024-01-27T03:00:06;12.93;;;11.03;;
55465;SDS011;41329;41.594;23.810;2024-01-27T03:02:32;16.20;;;12.67;;
55465;SDS011;41329;41.594;23.810;2024-01-27T03:04:57;15.03;;;10.63;;
55465;SDS011;41329;41.594;23.810;2024-01-27T03:07:23;16.33;;;10.90;;
55465;SDS011;41329;41.594;23.810;2024-01-27T03:09:48;15.97;;;10.93;;
55465;SDS011;41329;41.594;23.810;2024-01-27T03:12:14;12.37;;;10.20;;
55465;SDS011;41329;41.594;23.810;2024-01-27T03:14:40;18.00;;;10.13;;
55465;SDS011;41329;41.594;23.810;2024-01-27T03:17:07;10.13;;;9.07;;
55465;SDS011;41329;41.594;23.810;2024-01-27T03:19:32;11.43;;;10.33;;
55465;SDS011;41329;41.594;23.810;2024-01-27T03:21:58;124.97;;;52.43;;
55465;SDS011;41329;41.594;23.810;2024-01-27T03:24:23;144.57;;;56.43;;
55465;SDS011;41329;41.594;23.810;2024-01-27T03:26:49;68.20;;;31.80;;
55465;SDS011;41329;41.594;23.810;2024-01-27T03:29:14;45.07;;;24.03;;
55465;SDS011;41329;41.594;23.810;2024-01-27T03:31:40;39.37;;;20.43;;
55465;SDS011;41329;41.594;23.810;2024-01-27T03:34:05;30.33;;;18.87;;
55465;SDS011;41329;41.594;23.810;2024-01-27T03:36:31;27.77;;;17.57;;
55465;SDS011;41329;41.594;23.810;2024-01-27T03:38:57;27.70;;;17.17;;
55465;SDS011;41329;41.594;23.810;2024-01-27T03:41:23;23.97;;;13.67;;
55465;SDS011;41329;41.594;23.810;2024-01-27T03:43:49;12.40;;;9.53;;
55465;SDS011;41329;41.594;23.810;2024-01-27T03:46:14;11.07;;;9.90;;
55465;SDS011;41329;41.594;23.810;2024-01-27T03:48:40;14.60;;;10.60;;
55465;SDS011;41329;41.594;23.810;2024-01-27T03:51:05;47.77;;;14.80;;
55465;SDS011;41329;41.594;23.810;2024-01-27T03:53:31;29.90;;;16.17;;
55465;SDS011;41329;41.594;23.810;2024-01-27T03:55:56;42.63;;;21.20;;
55465;SDS011;41329;41.594;23.810;2024-01-27T03:58:29;83.07;;;28.00;;
55465;SDS011;41329;41.594;23.810;2024-01-27T04:00:55;27.37;;;15.10;;
55465;SDS011;41329;41.594;23.810;2024-01-27T04:03:22;19.10;;;12.33;;
55465;SDS011;41329;41.594;23.810;2024-01-27T04:05:47;11.77;;;9.43;;
55465;SDS011;41329;41.594;23.810;2024-01-27T04:08:12;15.30;;;9.43;;
55465;SDS011;41329;41.594;23.810;2024-01-27T04:10:38;10.13;;;9.23;;
55465;SDS011;41329;41.594;23.810;2024-01-27T04:13:03;28.63;;;18.13;;
55465;SDS011;41329;41.594;23.810;2024-01-27T04:15:29;45.70;;;26.40;;
55465;SDS011;41329;41.594;23.810;2024-01-27T04:17:55;22.87;;;15.93;;
55465;SDS011;41329;41.594;23.810;2024-01-27T04:20:21;50.50;;;29.90;;
55465;SDS011;41329;41.594;23.810;2024-01-27T04:22:47;68.77;;;39.27;;
55465;SDS011;41329;41.594;23.810;2024-01-27T04:25:12;27.63;;;19.53;;
55465;SDS011;41329;41.594;23.810;2024-01-27T04:27:38;43.17;;;22.90;;
55465;SDS011;41329;41.594;23.810;2024-01-27T04:30:10;53.17;;;29.53;;
55465;SDS011;41329;41.594;23.810;2024-01-27T04:32:37;40.87;;;21.80;;
55465;SDS011;41329;41.594;23.810;2024-01-27T04:35:03;13.37;;;11.30;;
55465;SDS011;41329;41.594;23.810;2024-01-27T04:37:29;9.43;;;8.30;;
55465;SDS011;41329;41.594;23.810;2024-01-27T04:39:55;8.87;;;7.97;;
55465;SDS011;41329;41.594;23.810;2024-01-27T04:42:20;9.30;;;7.60;;
55465;SDS011;41329;41.594;23.810;2024-01-27T04:44:46;9.30;;;8.23;;
55465;SDS011;41329;41.594;23.810;2024-01-27T04:47:11;8.30;;;7.47;;
55465;SDS011;41329;41.594;23.810;2024-01-27T04:49:37;11.90;;;10.83;;
55465;SDS011;41329;41.594;23.810;2024-01-27T04:52:02;25.53;;;17.50;;
55465;SDS011;41329;41.594;23.810;2024-01-27T04:54:28;23.03;;;17.00;;
55465;SDS011;41329;41.594;23.810;2024-01-27T04:56:53;25.03;;;16.37;;
55465;SDS011;41329;41.594;23.810;2024-01-27T04:59:20;31.43;;;16.97;;
55465;SDS011;41329;41.594;23.810;2024-01-27T05:01:46;22.60;;;15.80;;
55465;SDS011;41329;41.594;23.810;2024-01-27T05:04:12;26.83;;;18.50;;
55465;SDS011;41329;41.594;23.810;2024-01-27T05:06:37;45.23;;;23.53;;
55465;SDS011;41329;41.594;23.810;2024-01-27T05:09:04;64.30;;;29.43;;
55465;SDS011;41329;41.594;23.810;2024-01-27T05:11:32;65.00;;;29.97;;
55465;SDS011;41329;41.594;23.810;2024-01-27T05:14:01;46.17;;;25.47;;
55465;SDS011;41329;41.594;23.810;2024-01-27T05:16:27;35.77;;;21.43;;
55465;SDS011;41329;41.594;23.810;2024-01-27T05:18:53;70.53;;;33.07;;
55465;SDS011;41329;41.594;23.810;2024-01-27T05:21:18;59.77;;;29.10;;
55465;SDS011;41329;41.594;23.810;2024-01-27T05:23:44;38.00;;;23.77;;
55465;SDS011;41329;41.594;23.810;2024-01-27T05:26:09;31.57;;;19.87;;
55465;SDS011;41329;41.594;23.810;2024-01-27T05:28:38;43.90;;;23.40;;
55465;SDS011;41329;41.594;23.810;2024-01-27T05:31:07;22.80;;;17.10;;
55465;SDS011;41329;41.594;23.810;2024-01-27T05:33:33;36.13;;;20.67;;
55465;SDS011;41329;41.594;23.810;2024-01-27T05:35:58;39.40;;;20.20;;
55465;SDS011;41329;41.594;23.810;2024-01-27T05:38:24;28.23;;;19.63;;
55465;SDS011;41329;41.594;23.810;2024-01-27T05:40:51;36.13;;;20.57;;
55465;SDS011;41329;41.594;23.810;2024-01-27T05:43:16;46.50;;;24.23;;
55465;SDS011;41329;41.594;23.810;2024-01-27T05:45:42;52.53;;;25.77;;
55465;SDS011;41329;41.594;23.810;2024-01-27T05:48:07;65.37;;;30.00;;
55465;SDS011;41329;41.594;23.810;2024-01-27T05:50:32;57.07;;;28.37;;
55465;SDS011;41329;41.594;23.810;2024-01-27T05:52:59;33.03;;;21.87;;
55465;SDS011;41329;41.594;23.810;2024-01-27T05:55:24;48.10;;;25.77;;
55465;SDS011;41329;41.594;23.810;2024-01-27T05:57:50;79.07;;;34.23;;
55465;SDS011;41329;41.594;23.810;2024-01-27T06:00:15;49.03;;;25.90;;
55465;SDS011;41329;41.594;23.810;2024-01-27T06:02:41;76.17;;;34.33;;
55465;SDS011;41329;41.594;23.810;2024-01-27T06:05:06;104.57;;;38.97;;
55465;SDS011;41329;41.594;23.810;2024-01-27T06:07:34;116.63;;;47.23;;
55465;SDS011;41329;41.594;23.810;2024-01-27T06:09:59;95.77;;;38.40;;
55465;SDS011;41329;41.594;23.810;2024-01-27T06:12:24;106.17;;;43.87;;
55465;SDS011;41329;41.594;23.810;2024-01-27T06:14:50;80.30;;;33.47;;
55465;SDS011;41329;41.594;23.810;2024-01-27T06:17:15;37.43;;;20.97;;
55465;SDS011;41329;41.594;23.810;2024-01-27T06:19:41;36.93;;;21.23;;
55465;SDS011;41329;41.594;23.810;2024-01-27T06:22:06;39.87;;;22.57;;
55465;SDS011;41329;41.594;23.810;2024-01-27T06:24:32;62.50;;;33.63;;
55465;SDS011;41329;41.594;23.810;2024-01-27T06:26:57;70.63;;;33.97;;
55465;SDS011;41329;41.594;23.810;2024-01-27T06:29:23;59.27;;;28.37;;
55465;SDS011;41329;41.594;23.810;2024-01-27T06:31:48;61.27;;;33.33;;
55465;SDS011;41329;41.594;23.810;2024-01-27T06:34:14;67.00;;;33.50;;
55465;SDS011;41329;41.594;23.810;2024-01-27T06:36:39;66.10;;;33.47;;
55465;SDS011;41329;41.594;23.810;2024-01-27T06:39:05;103.60;;;44.57;;
55465;SDS011;41329;41.594;23.810;2024-01-27T06:41:32;78.27;;;34.37;;
55465;SDS011;41329;41.594;23.810;2024-01-27T06:43:58;52.17;;;25.40;;
55465;SDS011;41329;41.594;23.810;2024-01-27T06:46:23;65.37;;;27.83;;
55465;SDS011;41329;41.594;23.810;2024-01-27T06:48:49;32.50;;;18.50;;
55465;SDS011;41329;41.594;23.810;2024-01-27T06:51:15;28.83;;;19.27;;
55465;SDS011;41329;41.594;23.810;2024-01-27T06:53:40;17.40;;;13.90;;
55465;SDS011;41329;41.594;23.810;2024-01-27T06:56:06;19.77;;;15.03;;
55465;SDS011;41329;41.594;23.810;2024-01-27T06:58:32;13.67;;;12.27;;
55465;SDS011;41329;41.594;23.810;2024-01-27T07:00:58;21.97;;;14.13;;
55465;SDS011;41329;41.594;23.810;2024-01-27T07:03:23;13.47;;;12.07;;
55465;SDS011;41329;41.594;23.810;2024-01-27T07:05:48;20.53;;;13.30;;
55465;SDS011;41329;41.594;23.810;2024-01-27T07:08:14;25.53;;;17.27;;
55465;SDS011;41329;41.594;23.810;2024-01-27T07:10:39;29.23;;;18.87;;
55465;SDS011;41329;41.594;23.810;2024-01-27T07:13:05;19.13;;;16.50;;
55465;SDS011;41329;41.594;23.810;2024-01-27T07:15:33;26.93;;;17.67;;
55465;SDS011;41329;41.594;23.810;2024-01-27T07:17:59;50.17;;;25.33;;
55465;SDS011;41329;41.594;23.810;2024-01-27T07:20:24;49.57;;;26.07;;
55465;SDS011;41329;41.594;23.810;2024-01-27T07:22:50;72.83;;;35.53;;
55465;SDS011;41329;41.594;23.810;2024-01-27T07:25:15;70.90;;;37.00;;
55465;SDS011;41329;41.594;23.810;2024-01-27T07:27:41;71.83;;;36.53;;
55465;SDS011;41329;41.594;23.810;2024-01-27T07:30:06;130.87;;;60.37;;
55465;SDS011;41329;41.594;23.810;2024-01-27T07:32:34;112.13;;;51.97;;
55465;SDS011;41329;41.594;23.810;2024-01-27T07:34:59;88.63;;;44.10;;
55465;SDS011;41329;41.594;23.810;2024-01-27T07:37:27;80.70;;;42.03;;
55465;SDS011;41329;41.594;23.810;2024-01-27T07:39:52;82.63;;;40.43;;
55465;SDS011;41329;41.594;23.810;2024-01-27T07:42:18;77.17;;;39.03;;
55465;SDS011;41329;41.594;23.810;2024-01-27T07:44:43;82.70;;;40.37;;
55465;SDS011;41329;41.594;23.810;2024-01-27T07:47:08;75.23;;;40.43;;
55465;SDS011;41329;41.594;23.810;2024-01-27T07:49:34;86.03;;;44.30;;
55465;SDS011;41329;41.594;23.810;2024-01-27T07:52:00;111.57;;;50.63;;
55465;SDS011;41329;41.594;23.810;2024-01-27T07:54:25;122.13;;;58.13;;
55465;SDS011;41329;41.594;23.810;2024-01-27T07:56:51;113.80;;;54.17;;
55465;SDS011;41329;41.594;23.810;2024-01-27T07:59:16;111.83;;;52.87;;
55465;SDS011;41329;41.594;23.810;2024-01-27T08:01:42;94.03;;;46.00;;
55465;SDS011;41329;41.594;23.810;2024-01-27T08:04:08;90.70;;;46.10;;
55465;SDS011;41329;41.594;23.810;2024-01-27T08:06:33;92.63;;;45.27;;
55465;SDS011;41329;41.594;23.810;2024-01-27T08:08:59;94.57;;;48.17;;
55465;SDS011;41329;41.594;23.810;2024-01-27T08:11:24;106.90;;;53.53;;
55465;SDS011;41329;41.594;23.810;2024-01-27T08:13:50;148.17;;;67.60;;
55465;SDS011;41329;41.594;23.810;2024-01-27T08:16:15;150.13;;;74.40;;
55465;SDS011;41329;41.594;23.810;2024-01-27T08:18:41;188.30;;;87.17;;
55465;SDS011;41329;41.594;23.810;2024-01-27T08:21:09;189.30;;;88.13;;
55465;SDS011;41329;41.594;23.810;2024-01-27T08:23:36;165.23;;;78.30;;
55465;SDS011;41329;41.594;23.810;2024-01-27T08:26:02;152.83;;;71.83;;
55465;SDS011;41329;41.594;23.810;2024-01-27T08:28:28;134.93;;;62.30;;
55465;SDS011;41329;41.594;23.810;2024-01-27T08:30:53;116.73;;;53.13;;
55465;SDS011;41329;41.594;23.810;2024-01-27T08:33:19;90.07;;;43.60;;
55465;SDS011;41329;41.594;23.810;2024-01-27T08:35:51;87.47;;;43.70;;
55465;SDS011;41329;41.594;23.810;2024-01-27T08:38:16;101.50;;;48.60;;
55465;SDS011;41329;41.594;23.810;2024-01-27T08:40:42;95.93;;;44.60;;
55465;SDS011;41329;41.594;23.810;2024-01-27T08:43:08;73.97;;;35.87;;
55465;SDS011;41329;41.594;23.810;2024-01-27T08:45:35;64.10;;;32.27;;
55465;SDS011;41329;41.594;23.810;2024-01-27T08:48:01;64.57;;;33.83;;
55465;SDS011;41329;41.594;23.810;2024-01-27T08:50:26;52.87;;;29.57;;
55465;SDS011;41329;41.594;23.810;2024-01-27T08:52:51;51.87;;;29.53;;
55465;SDS011;41329;41.594;23.810;2024-01-27T08:55:17;109.67;;;45.07;;
55465;SDS011;41329;41.594;23.810;2024-01-27T08:57:44;77.37;;;38.83;;
55465;SDS011;41329;41.594;23.810;2024-01-27T09:00:11;76.17;;;36.73;;
55465;SDS011;41329;41.594;23.810;2024-01-27T09:02:38;74.03;;;36.60;;
55465;SDS011;41329;41.594;23.810;2024-01-27T09:05:04;61.13;;;31.87;;
55465;SDS011;41329;41.594;23.810;2024-01-27T09:07:30;40.10;;;22.57;;
55465;SDS011;41329;41.594;23.810;2024-01-27T09:09:56;35.23;;;21.00;;
55465;SDS011;41329;41.594;23.810;2024-01-27T09:12:21;21.07;;;14.37;;
55465;SDS011;41329;41.594;23.810;2024-01-27T09:14:46;38.50;;;22.63;;
55465;SDS011;41329;41.594;23.810;2024-01-27T09:17:12;35.50;;;20.07;;
55465;SDS011;41329;41.594;23.810;2024-01-27T09:19:37;30.27;;;21.13;;
55465;SDS011;41329;41.594;23.810;2024-01-27T09:22:03;29.47;;;18.80;;
55465;SDS011;41329;41.594;23.810;2024-01-27T09:24:28;22.87;;;16.27;;
55465;SDS011;41329;41.594;23.810;2024-01-27T09:26:54;28.13;;;19.40;;
55465;SDS011;41329;41.594;23.810;2024-01-27T09:29:19;24.47;;;17.20;;
55465;SDS011;41329;41.594;23.810;2024-01-27T09:31:45;38.77;;;22.60;;
55465;SDS011;41329;41.594;23.810;2024-01-27T09:34:10;16.23;;;11.63;;
55465;SDS011;41329;41.594;23.810;2024-01-27T09:36:36;36.37;;;19.20;;
55465;SDS011;41329;41.594;23.810;2024-01-27T09:39:01;23.60;;;15.20;;
55465;SDS011;41329;41.594;23.810;2024-01-27T09:41:29;19.07;;;14.33;;
55465;SDS011;41329;41.594;23.810;2024-01-27T09:44:02;121.10;;;57.30;;
55465;SDS011;41329;41.594;23.810;2024-01-27T09:46:28;36.30;;;20.60;;
55465;SDS011;41329;41.594;23.810;2024-01-27T09:48:55;20.93;;;14.20;;
55465;SDS011;41329;41.594;23.810;2024-01-27T09:51:21;20.13;;;15.37;;
55465;SDS011;41329;41.594;23.810;2024-01-27T09:53:47;28.33;;;20.03;;
55465;SDS011;41329;41.594;23.810;2024-01-27T09:56:13;19.47;;;13.83;;
55465;SDS011;41329;41.594;23.810;2024-01-27T09:58:43;14.85;;;8.65;;
55465;SDS011;41329;41.594;23.810;2024-01-27T10:01:11;19.30;;;11.77;;
55465;SDS011;41329;41.594;23.810;2024-01-27T10:03:41;15.73;;;11.17;;
55465;SDS011;41329;41.594;23.810;2024-01-27T10:06:08;11.03;;;9.57;;
55465;SDS011;41329;41.594;23.810;2024-01-27T10:08:34;10.60;;;9.60;;
55465;SDS011;41329;41.594;23.810;2024-01-27T10:11:03;5.90;;;5.40;;
55465;SDS011;41329;41.594;23.810;2024-01-27T10:13:32;13.60;;;11.73;;
55465;SDS011;41329;41.594;23.810;2024-01-27T10:18:33;10.20;;;7.03;;
55465;SDS011;41329;41.594;23.810;2024-01-27T10:20:59;4.33;;;3.93;;
55465;SDS011;41329;41.594;23.810;2024-01-27T10:23:25;6.17;;;5.33;;
55465;SDS011;41329;41.594;23.810;2024-01-27T10:25:51;12.87;;;8.70;;
55465;SDS011;41329;41.594;23.810;2024-01-27T10:28:17;5.30;;;4.10;;
55465;SDS011;41329;41.594;23.810;2024-01-27T10:30:44;0.73;;;0.73;;
55465;SDS011;41329;41.594;23.810;2024-01-27T10:33:10;4.00;;;1.40;;
55465;SDS011;41329;41.594;23.810;2024-01-27T10:35:38;1.33;;;0.80;;
55465;SDS011;41329;41.594;23.810;2024-01-27T10:38:22;3.07;;;1.13;;
55465;SDS011;41329;41.594;23.810;2024-01-27T10:40:59;1.50;;;0.80;;
55465;SDS011;41329;41.594;23.810;2024-01-27T10:43:25;10.13;;;6.20;;
55465;SDS011;41329;41.594;23.810;2024-01-27T10:45:50;11.53;;;7.17;;
55465;SDS011;41329;41.594;23.810;2024-01-27T10:48:16;2.70;;;2.50;;
55465;SDS011;41329;41.594;23.810;2024-01-27T10:50:42;8.93;;;6.43;;
55465;SDS011;41329;41.594;23.810;2024-01-27T10:53:21;9.80;;;8.90;;
55465;SDS011;41329;41.594;23.810;2024-01-27T10:55:49;5.83;;;4.43;;
55465;SDS011;41329;41.594;23.810;2024-01-27T10:58:18;5.70;;;2.97;;
55465;SDS011;41329;41.594;23.810;2024-01-27T11:00:46;0.97;;;0.60;;
55465;SDS011;41329;41.594;23.810;2024-01-27T11:03:14;0.90;;;0.90;;
55465;SDS011;41329;41.594;23.810;2024-01-27T11:05:43;25.10;;;12.53;;
55465;SDS011;41329;41.594;23.810;2024-01-27T11:08:12;32.30;;;15.07;;
55465;SDS011;41329;41.594;23.810;2024-01-27T11:10:39;19.67;;;11.77;;
55465;SDS011;41329;41.594;23.810;2024-01-27T11:13:05;11.67;;;7.27;;
55465;SDS011;41329;41.594;23.810;2024-01-27T11:15:32;6.47;;;4.20;;
55465;SDS011;41329;41.594;23.810;2024-01-27T11:17:58;6.10;;;5.63;;
55465;SDS011;41329;41.594;23.810;2024-01-27T11:20:30;4.13;;;3.73;;
55465;SDS011;41329;41.594;23.810;2024-01-27T11:23:07;2.37;;;1.90;;
55465;SDS011;41329;41.594;23.810;2024-01-27T11:25:33;1.70;;;1.10;;
55465;SDS011;41329;41.594;23.810;2024-01-27T11:27:59;1.27;;;0.77;;
55465;SDS011;41329;41.594;23.810;2024-01-27T11:30:35;1.17;;;1.07;;
55465;SDS011;41329;41.594;23.810;2024-01-27T11:33:04;1.50;;;0.70;;
55465;SDS011;41329;41.594;23.810;2024-01-27T11:35:30;1.70;;;1.60;;
55465;SDS011;41329;41.594;23.810;2024-01-27T11:37:56;3.30;;;2.80;;
55465;SDS011;41329;41.594;23.810;2024-01-27T11:40:21;0.97;;;0.90;;
55465;SDS011;41329;41.594;23.810;2024-01-27T11:42:56;1.20;;;1.10;;
55465;SDS011;41329;41.594;23.810;2024-01-27T11:45:22;1.30;;;1.03;;
55465;SDS011;41329;41.594;23.810;2024-01-27T11:47:48;3.00;;;2.40;;
55465;SDS011;41329;41.594;23.810;2024-01-27T11:50:14;2.33;;;2.13;;
55465;SDS011;41329;41.594;23.810;2024-01-27T11:52:42;17.97;;;4.27;;
55465;SDS011;41329;41.594;23.810;2024-01-27T11:55:08;3.23;;;2.80;;
55465;SDS011;41329;41.594;23.810;2024-01-27T11:57:33;2.27;;;2.07;;
55465;SDS011;41329;41.594;23.810;2024-01-27T11:59:59;2.57;;;1.97;;
55465;SDS011;41329;41.594;23.810;2024-01-27T12:02:24;7.30;;;6.57;;
55465;SDS011;41329;41.594;23.810;2024-01-27T12:04:49;1.37;;;0.90;;
55465;SDS011;41329;41.594;23.810;2024-01-27T12:07:15;1.37;;;1.27;;
55465;SDS011;41329;41.594;23.810;2024-01-27T12:09:44;3.10;;;2.37;;
55465;SDS011;41329;41.594;23.810;2024-01-27T12:12:10;1.60;;;1.50;;
55465;SDS011;41329;41.594;23.810;2024-01-27T12:14:41;3.83;;;3.53;;
55465;SDS011;41329;41.594;23.810;2024-01-27T12:17:10;3.00;;;2.80;;
55465;SDS011;41329;41.594;23.810;2024-01-27T12:19:37;3.00;;;2.67;;
55465;SDS011;41329;41.594;23.810;2024-01-27T12:22:03;5.33;;;2.60;;
55465;SDS011;41329;41.594;23.810;2024-01-27T12:24:29;8.07;;;7.27;;
55465;SDS011;41329;41.594;23.810;2024-01-27T12:26:55;1.60;;;1.13;;
55465;SDS011;41329;41.594;23.810;2024-01-27T12:29:24;3.53;;;1.77;;
55465;SDS011;41329;41.594;23.810;2024-01-27T12:31:49;6.67;;;6.17;;
55465;SDS011;41329;41.594;23.810;2024-01-27T12:34:15;47.60;;;25.70;;
55465;SDS011;41329;41.594;23.810;2024-01-27T12:36:41;8.93;;;8.10;;
55465;SDS011;41329;41.594;23.810;2024-01-27T12:39:07;3.57;;;3.30;;
55465;SDS011;41329;41.594;23.810;2024-01-27T12:41:34;5.70;;;5.30;;
55465;SDS011;41329;41.594;23.810;2024-01-27T12:43:59;5.70;;;2.73;;
55465;SDS011;41329;41.594;23.810;2024-01-27T12:46:26;5.00;;;3.97;;
55465;SDS011;41329;41.594;23.810;2024-01-27T12:48:52;5.20;;;4.80;;
55465;SDS011;41329;41.594;23.810;2024-01-27T12:51:18;16.80;;;14.60;;
55465;SDS011;41329;41.594;23.810;2024-01-27T12:53:44;3.27;;;2.57;;
55465;SDS011;41329;41.594;23.810;2024-01-27T12:56:10;4.80;;;4.33;;
55465;SDS011;41329;41.594;23.810;2024-01-27T12:58:36;3.20;;;3.00;;
55465;SDS011;41329;41.594;23.810;2024-01-27T13:01:02;2.90;;;2.70;;
55465;SDS011;41329;41.594;23.810;2024-01-27T13:03:28;5.33;;;1.40;;
55465;SDS011;41329;41.594;23.810;2024-01-27T13:05:53;5.23;;;4.93;;
55465;SDS011;41329;41.594;23.810;2024-01-27T13:08:19;3.40;;;2.70;;
55465;SDS011;41329;41.594;23.810;2024-01-27T13:10:45;4.43;;;4.03;;
55465;SDS011;41329;41.594;23.810;2024-01-27T13:13:10;2.63;;;2.43;;
55465;SDS011;41329;41.594;23.810;2024-01-27T13:15:36;2.57;;;2.37;;
55465;SDS011;41329;41.594;23.810;2024-01-27T13:18:01;3.20;;;2.93;;
55465;SDS011;41329;41.594;23.810;2024-01-27T13:20:27;5.27;;;4.87;;
55465;SDS011;41329;41.594;23.810;2024-01-27T13:22:52;1.00;;;1.00;;
55465;SDS011;41329;41.594;23.810;2024-01-27T13:25:19;1.13;;;1.03;;
55465;SDS011;41329;41.594;23.810;2024-01-27T13:27:44;2.10;;;0.80;;
55465;SDS011;41329;41.594;23.810;2024-01-27T13:30:11;0.90;;;0.90;;
55465;SDS011;41329;41.594;23.810;2024-01-27T13:32:37;1.60;;;1.50;;
55465;SDS011;41329;41.594;23.810;2024-01-27T13:35:03;1.60;;;1.50;;
55465;SDS011;41329;41.594;23.810;2024-01-27T13:37:29;1.07;;;1.00;;
55465;SDS011;41329;41.594;23.810;2024-01-27T13:40:02;1.83;;;0.98;;
55465;SDS011;41329;41.594;23.810;2024-01-27T13:44:54;1.10;;;1.10;;
55465;SDS011;41329;41.594;23.810;2024-01-27T13:47:20;3.50;;;2.00;;
55465;SDS011;41329;41.594;23.810;2024-01-27T13:49:45;1.40;;;0.90;;
55465;SDS011;41329;41.594;23.810;2024-01-27T13:52:11;2.60;;;2.40;;
55465;SDS011;41329;41.594;23.810;2024-01-27T13:54:37;1.87;;;1.40;;
55465;SDS011;41329;41.594;23.810;2024-01-27T13:57:03;1.47;;;0.90;;
55465;SDS011;41329;41.594;23.810;2024-01-27T13:59:29;34.75;;;21.70;;
55465;SDS011;41329;41.594;23.810;2024-01-27T14:01:54;2.57;;;2.30;;
55465;SDS011;41329;41.594;23.810;2024-01-27T14:04:22;1.27;;;1.00;;
55465;SDS011;41329;41.594;23.810;2024-01-27T14:06:49;1.63;;;1.53;;
55465;SDS011;41329;41.594;23.810;2024-01-27T14:09:15;1.00;;;0.90;;
55465;SDS011;41329;41.594;23.810;2024-01-27T14:11:41;1.33;;;0.80;;
55465;SDS011;41329;41.594;23.810;2024-01-27T14:14:07;1.83;;;1.73;;